Time;durP1;ratioP1;P1;durP2;ratioP2;P2;SDS_P1;SDS_P2;PMS_P1;PMS_P2;Temp;Humidity;BMP_temperature;BMP_pressure;BME280_temperature;BME280_humidity;BME280_pressure;Samples;Min_cycle;Max_cycle;Signal;HPM_P1;HPM_P2
2022/04/01 00:01:50;;;;;;;0.20;0.20;;;;;;;;;;4910210;29;20126;-90
2022/04/01 00:04:17;;;;;;;0.10;0.10;;;;;;;;;;4926905;29;20532;-91
2022/04/01 00:06:43;;;;;;;0.10;0.10;;;;;;;;;;4911332;29;20131;-91
2022/04/01 00:09:09;;;;;;;0.20;0.20;;;;;;;;;;4927185;29;20279;-92
2022/04/01 00:11:35;;;;;;;0.20;0.20;;;;;;;;;;4926942;29;20487;-91
2022/04/01 00:14:01;;;;;;;0.10;0.10;;;;;;;;;;4916824;29;20058;-92
2022/04/01 00:16:27;;;;;;;0.10;0.10;;;;;;;;;;4918636;29;20035;-92
2022/04/01 00:18:53;;;;;;;0.10;0.10;;;;;;;;;;4916985;29;20344;-92
2022/04/01 00:21:19;;;;;;;0.05;0.05;;;;;;;;;;4929695;29;20039;-93
2022/04/01 00:23:46;;;;;;;0.10;0.10;;;;;;;;;;4912752;29;20497;-93
2022/04/01 00:26:12;;;;;;;0.10;0.10;;;;;;;;;;4920220;29;20062;-93
2022/04/01 00:28:38;;;;;;;0.10;0.10;;;;;;;;;;4926583;29;20040;-92
2022/04/01 00:31:04;;;;;;;0.52;0.22;;;;;;;;;;4910493;29;20094;-93
2022/04/01 00:33:31;;;;;;;0.10;0.10;;;;;;;;;;4910362;29;20150;-92
2022/04/01 00:35:57;;;;;;;0.10;0.10;;;;;;;;;;4909572;29;20043;-93
2022/04/01 00:38:24;;;;;;;0.10;0.10;;;;;;;;;;4910070;29;20371;-92
2022/04/01 00:40:51;;;;;;;0.10;0.10;;;;;;;;;;4925305;29;20039;-92
2022/04/01 00:43:18;;;;;;;0.10;0.10;;;;;;;;;;4925204;29;20090;-92
2022/04/01 00:45:44;;;;;;;0.10;0.10;;;;;;;;;;4909345;29;20062;-92
2022/04/01 00:48:11;;;;;;;0.10;0.10;;;;;;;;;;4909149;29;20047;-92
2022/04/01 00:50:37;;;;;;;0.10;0.10;;;;;;;;;;4909333;29;20051;-92
2022/04/01 00:53:03;;;;;;;0.10;0.10;;;;;;;;;;4912166;29;20039;-92
2022/04/01 00:55:29;;;;;;;0.10;0.10;;;;;;;;;;4911499;29;20043;-92
2022/04/01 00:57:55;;;;;;;0.10;0.10;;;;;;;;;;4926152;29;20089;-91
2022/04/01 01:00:25;;;;;;;0.25;0.25;;;;;;;;;;4924409;29;20043;-92
2022/04/01 01:02:51;;;;;;;0.00;0.00;;;;;;;;;;4925398;29;20446;-91
2022/04/01 01:05:17;;;;;;;0.10;0.10;;;;;;;;;;4908308;29;20043;-91
2022/04/01 01:07:43;;;;;;;0.10;0.10;;;;;;;;;;4908902;29;20046;-91
2022/04/01 01:10:10;;;;;;;0.10;0.10;;;;;;;;;;4924426;29;20039;-92
2022/04/01 01:12:37;;;;;;;0.10;0.10;;;;;;;;;;4924448;29;20540;-92
2022/04/01 01:15:07;;;;;;;0.10;0.10;;;;;;;;;;4924366;29;20402;-90
2022/04/01 01:17:33;;;;;;;0.10;0.10;;;;;;;;;;4908501;29;20178;-90
2022/04/01 01:19:59;;;;;;;0.10;0.10;;;;;;;;;;4908129;28;20507;-90
2022/04/01 01:22:25;;;;;;;0.10;0.10;;;;;;;;;;4908325;29;20185;-90
2022/04/01 01:24:51;;;;;;;0.10;0.10;;;;;;;;;;4923928;29;20035;-91
2022/04/01 01:27:17;;;;;;;0.10;0.10;;;;;;;;;;4924177;29;20050;-91
2022/04/01 01:29:45;;;;;;;0.20;0.20;;;;;;;;;;4923758;28;20130;-91
2022/04/01 01:32:17;;;;;;;0.10;0.10;;;;;;;;;;4908126;29;20046;-91
2022/04/01 01:34:43;;;;;;;0.10;0.10;;;;;;;;;;4908335;29;20058;-92
2022/04/01 01:37:10;;;;;;;0.10;0.10;;;;;;;;;;4923834;29;20044;-93
2022/04/01 01:39:36;;;;;;;0.10;0.10;;;;;;;;;;4923873;28;20083;-92
2022/04/01 01:42:02;;;;;;;0.10;0.10;;;;;;;;;;4926823;29;20059;-92
2022/04/01 01:44:28;;;;;;;0.22;0.22;;;;;;;;;;4924015;29;20506;-92
2022/04/01 01:46:54;;;;;;;0.10;0.10;;;;;;;;;;4924894;29;20476;-93
2022/04/01 01:49:21;;;;;;;0.10;0.10;;;;;;;;;;4908058;29;20043;-92
2022/04/01 01:54:44;;;;;;;0.50;0.50;;;;;;;;;;4925985;29;20434;-92
2022/04/01 01:57:14;;;;;;;0.10;0.10;;;;;;;;;;4909839;29;20406;-94
2022/04/01 01:59:40;;;;;;;0.32;0.30;;;;;;;;;;4908319;28;20383;-93
2022/04/01 02:02:08;;;;;;;0.10;0.10;;;;;;;;;;4923671;29;20059;-91
2022/04/01 02:04:35;;;;;;;0.20;0.20;;;;;;;;;;4908041;29;20078;-92
2022/04/01 02:07:01;;;;;;;0.10;0.10;;;;;;;;;;4923400;29;20054;-92
2022/04/01 02:09:27;;;;;;;0.10;0.10;;;;;;;;;;4907842;29;20043;-93
2022/04/01 02:11:53;;;;;;;0.10;0.10;;;;;;;;;;4907991;29;20047;-92
2022/04/01 02:14:19;;;;;;;0.10;0.10;;;;;;;;;;4907657;29;20050;-92
2022/04/01 02:16:45;;;;;;;0.10;0.10;;;;;;;;;;4922667;29;20099;-91
2022/04/01 02:19:11;;;;;;;0.10;0.10;;;;;;;;;;4923679;29;20384;-92
2022/04/01 02:21:37;;;;;;;0.10;0.10;;;;;;;;;;4907494;29;20039;-92
2022/04/01 02:24:05;;;;;;;0.10;0.10;;;;;;;;;;4907771;29;20354;-92
2022/04/01 02:26:32;;;;;;;0.08;0.08;;;;;;;;;;4907425;29;20074;-92
2022/04/01 02:28:59;;;;;;;0.10;0.10;;;;;;;;;;4923128;29;20451;-92
2022/04/01 02:31:25;;;;;;;0.30;0.30;;;;;;;;;;4907457;29;20522;-92
2022/04/01 02:33:51;;;;;;;0.10;0.10;;;;;;;;;;4907716;29;20461;-92
2022/04/01 02:36:17;;;;;;;0.10;0.10;;;;;;;;;;4907320;29;20075;-93
2022/04/01 02:38:43;;;;;;;0.10;0.10;;;;;;;;;;4907427;29;20039;-92
2022/04/01 02:41:11;;;;;;;0.17;0.17;;;;;;;;;;4907000;29;20115;-92
2022/04/01 02:43:40;;;;;;;0.00;0.00;;;;;;;;;;4923306;29;20094;-92
2022/04/01 02:46:06;;;;;;;0.10;0.10;;;;;;;;;;4922839;29;20050;-92
2022/04/01 02:48:32;;;;;;;0.40;0.40;;;;;;;;;;4922727;29;20043;-92
2022/04/01 02:50:58;;;;;;;0.10;0.10;;;;;;;;;;4938699;29;20093;-92
2022/04/01 02:53:24;;;;;;;0.17;0.17;;;;;;;;;;4907156;29;20047;-92
2022/04/01 02:55:50;;;;;;;0.10;0.10;;;;;;;;;;4906422;29;20047;-91
2022/04/01 02:58:16;;;;;;;0.10;0.10;;;;;;;;;;4922452;29;20546;-92
2022/04/01 03:00:42;;;;;;;0.10;0.10;;;;;;;;;;4907064;29;20050;-91
2022/04/01 03:03:08;;;;;;;0.10;0.10;;;;;;;;;;4922374;29;20046;-92
2022/04/01 03:05:38;;;;;;;0.10;0.10;;;;;;;;;;4922438;29;20486;-91
2022/04/01 03:08:05;;;;;;;0.10;0.10;;;;;;;;;;4906939;29;20054;-91
2022/04/01 03:10:40;;;;;;;0.10;0.10;;;;;;;;;;4922179;29;20494;-92
2022/04/01 03:13:09;;;;;;;0.10;0.10;;;;;;;;;;4923112;29;20054;-91
2022/04/01 03:15:35;;;;;;;0.10;0.10;;;;;;;;;;4907092;29;20486;-92
2022/04/01 03:18:01;;;;;;;0.10;0.10;;;;;;;;;;4906593;29;20115;-92
2022/04/01 03:20:29;;;;;;;0.10;0.10;;;;;;;;;;4907111;29;20035;-92
2022/04/01 03:22:55;;;;;;;0.10;0.10;;;;;;;;;;4906793;29;20483;-91
2022/04/01 03:25:21;;;;;;;0.10;0.10;;;;;;;;;;4906751;29;20211;-92
2022/04/01 03:27:48;;;;;;;0.10;0.10;;;;;;;;;;4908423;29;20043;-92
2022/04/01 03:30:14;;;;;;;0.10;0.10;;;;;;;;;;4907027;29;20043;-93
2022/04/01 03:32:41;;;;;;;0.20;0.20;;;;;;;;;;4909952;29;20054;-93
2022/04/01 03:35:13;;;;;;;0.10;0.10;;;;;;;;;;4907975;29;20095;-93
2022/04/01 03:37:39;;;;;;;0.10;0.10;;;;;;;;;;4908992;29;20074;-93
2022/04/01 03:40:05;;;;;;;0.10;0.10;;;;;;;;;;4926376;29;20043;-92
2022/04/01 03:42:32;;;;;;;0.10;0.10;;;;;;;;;;4925764;29;20195;-93
2022/04/01 03:45:03;;;;;;;0.10;0.10;;;;;;;;;;4908259;29;20406;-92
2022/04/01 03:47:49;;;;;;;0.10;0.10;;;;;;;;;;4927315;29;20051;-92
2022/04/01 03:50:16;;;;;;;0.10;0.10;;;;;;;;;;4925891;29;20036;-91
2022/04/01 03:52:44;;;;;;;0.10;0.10;;;;;;;;;;4924209;29;20071;-91
2022/04/01 03:55:10;;;;;;;0.10;0.10;;;;;;;;;;4909605;29;20039;-92
2022/04/01 03:57:37;;;;;;;0.10;0.10;;;;;;;;;;4925328;29;20059;-92
2022/04/01 04:00:05;;;;;;;0.10;0.10;;;;;;;;;;4910458;29;20130;-93
2022/04/01 04:02:40;;;;;;;0.10;0.10;;;;;;;;;;4929027;29;20095;-96
2022/04/01 04:05:07;;;;;;;0.10;0.10;;;;;;;;;;4915272;29;20390;-95
2022/04/01 04:07:33;;;;;;;0.10;0.10;;;;;;;;;;4908009;29;20035;-91
2022/04/01 04:09:59;;;;;;;0.10;0.10;;;;;;;;;;4905605;28;20090;-91
2022/04/01 04:12:31;;;;;;;0.10;0.10;;;;;;;;;;4905488;29;20039;-91
2022/04/01 04:14:57;;;;;;;0.10;0.10;;;;;;;;;;4906065;29;20043;-90
2022/04/01 04:17:39;;;;;;;0.10;0.10;;;;;;;;;;4905726;29;20142;-90
2022/04/01 04:20:09;;;;;;;0.10;0.10;;;;;;;;;;4920899;29;20475;-89
2022/04/01 04:22:41;;;;;;;0.10;0.10;;;;;;;;;;4905363;29;20507;-90
2022/04/01 04:25:15;;;;;;;0.10;0.10;;;;;;;;;;4921574;29;20043;-91
2022/04/01 04:27:47;;;;;;;0.10;0.10;;;;;;;;;;4922941;29;20391;-91
2022/04/01 04:30:14;;;;;;;0.10;0.10;;;;;;;;;;4937495;29;20039;-92
2022/04/01 04:32:44;;;;;;;0.10;0.10;;;;;;;;;;4921477;29;20043;-91
2022/04/01 04:35:10;;;;;;;0.10;0.10;;;;;;;;;;4906064;29;20505;-91
2022/04/01 04:37:37;;;;;;;0.10;0.10;;;;;;;;;;4922015;29;20429;-91
2022/04/01 04:40:03;;;;;;;0.10;0.10;;;;;;;;;;4907257;29;20035;-91
2022/04/01 04:42:30;;;;;;;0.10;0.10;;;;;;;;;;4902477;29;20135;-90
2022/04/01 04:44:56;;;;;;;0.10;0.10;;;;;;;;;;4918699;29;20048;-90
2022/04/01 04:47:26;;;;;;;0.10;0.10;;;;;;;;;;4902280;29;20050;-90
2022/04/01 04:49:53;;;;;;;0.10;0.10;;;;;;;;;;4901991;29;20040;-89
2022/04/01 04:52:19;;;;;;;0.10;0.10;;;;;;;;;;4902224;29;20055;-90
2022/04/01 04:54:45;;;;;;;0.10;0.10;;;;;;;;;;4901699;29;20040;-90
2022/04/01 04:57:11;;;;;;;0.10;0.10;;;;;;;;;;4902039;29;20088;-90
2022/04/01 04:59:38;;;;;;;0.10;0.10;;;;;;;;;;4902037;29;20040;-90
2022/04/01 05:02:08;;;;;;;0.10;0.10;;;;;;;;;;4917801;29;20040;-89
2022/04/01 05:04:43;;;;;;;0.10;0.10;;;;;;;;;;4902555;29;20046;-90
2022/04/01 05:07:19;;;;;;;0.10;0.10;;;;;;;;;;4902064;29;20044;-91
2022/04/01 05:09:45;;;;;;;0.10;0.10;;;;;;;;;;4908223;29;20471;-91
2022/04/01 05:12:30;;;;;;;0.10;0.10;;;;;;;;;;4898039;29;20050;-89
2022/04/01 05:14:59;;;;;;;0.10;0.10;;;;;;;;;;4886159;29;20188;-89
2022/04/01 05:17:26;;;;;;;0.10;0.10;;;;;;;;;;4917374;29;20063;-88
2022/04/01 05:19:57;;;;;;;0.10;0.10;;;;;;;;;;4894109;29;20444;-88
2022/04/01 05:22:25;;;;;;;0.10;0.10;;;;;;;;;;4917994;29;20047;-89
2022/04/01 05:24:52;;;;;;;0.10;0.10;;;;;;;;;;4917686;29;20471;-88
2022/04/01 05:27:18;;;;;;;0.10;0.10;;;;;;;;;;4898706;29;20072;-89
2022/04/01 05:29:44;;;;;;;0.10;0.10;;;;;;;;;;4901041;29;20488;-89
2022/04/01 05:32:13;;;;;;;0.10;0.10;;;;;;;;;;4885438;29;20040;-88
2022/04/01 05:34:40;;;;;;;0.10;0.10;;;;;;;;;;4901035;29;20044;-88
2022/04/01 05:37:07;;;;;;;0.10;0.10;;;;;;;;;;4885838;29;20092;-89
2022/04/01 05:39:34;;;;;;;0.10;0.10;;;;;;;;;;4886360;29;20048;-89
2022/04/01 05:42:00;;;;;;;0.10;0.10;;;;;;;;;;4909009;29;20172;-89
2022/04/01 05:44:26;;;;;;;0.10;0.10;;;;;;;;;;4897226;29;20071;-90
2022/04/01 05:46:55;;;;;;;0.10;0.10;;;;;;;;;;4904320;29;20126;-91
2022/04/01 05:49:22;;;;;;;0.10;0.10;;;;;;;;;;4904343;29;20401;-90
2022/04/01 05:51:48;;;;;;;0.10;0.10;;;;;;;;;;4919518;29;20079;-89
2022/04/01 05:54:19;;;;;;;0.10;0.10;;;;;;;;;;4904457;29;20372;-90
2022/04/01 05:56:45;;;;;;;0.10;0.10;;;;;;;;;;4899700;29;20042;-88
2022/04/01 05:59:12;;;;;;;0.10;0.10;;;;;;;;;;4904079;29;20043;-90
2022/04/01 06:01:41;;;;;;;0.10;0.10;;;;;;;;;;4898968;29;20051;-89
2022/04/01 06:04:10;;;;;;;0.10;0.10;;;;;;;;;;4919738;29;20138;-89
2022/04/01 06:06:42;;;;;;;0.10;0.10;;;;;;;;;;4929973;29;20143;-89
2022/04/01 06:09:17;;;;;;;0.10;0.10;;;;;;;;;;4906169;29;20242;-91
2022/04/01 06:11:59;;;;;;;0.10;0.10;;;;;;;;;;4934781;29;20071;-91
2022/04/01 06:14:28;;;;;;;0.10;0.10;;;;;;;;;;4938020;29;20048;-89
2022/04/01 06:16:58;;;;;;;0.10;0.10;;;;;;;;;;4904922;29;20040;-92
2022/04/01 06:19:43;;;;;;;0.10;0.10;;;;;;;;;;4920508;29;20396;-90
2022/04/01 06:22:10;;;;;;;0.10;0.10;;;;;;;;;;4935886;29;20039;-91
2022/04/01 06:24:44;;;;;;;0.10;0.10;;;;;;;;;;4898550;29;20043;-90
2022/04/01 06:27:15;;;;;;;0.10;0.10;;;;;;;;;;4919877;29;20130;-90
2022/04/01 06:29:48;;;;;;;0.10;0.10;;;;;;;;;;4898603;29;20059;-88
2022/04/01 06:32:33;;;;;;;0.10;0.10;;;;;;;;;;4919542;29;20053;-89
2022/04/01 06:35:04;;;;;;;0.10;0.10;;;;;;;;;;4916656;29;20043;-90
2022/04/01 06:37:34;;;;;;;0.10;0.10;;;;;;;;;;4892434;29;20090;-90
2022/04/01 06:40:10;;;;;;;0.52;0.30;;;;;;;;;;4924152;29;20040;-89
2022/04/01 06:42:37;;;;;;;0.10;0.10;;;;;;;;;;4934415;29;20055;-89
2022/04/01 06:45:08;;;;;;;0.10;0.10;;;;;;;;;;4934123;29;20090;-90
2022/04/01 06:47:34;;;;;;;0.28;0.28;;;;;;;;;;4934497;29;20044;-88
2022/04/01 06:50:00;;;;;;;0.10;0.10;;;;;;;;;;4904843;29;20043;-89
2022/04/01 06:52:26;;;;;;;0.10;0.10;;;;;;;;;;4911727;29;20134;-88
2022/04/01 06:54:53;;;;;;;0.10;0.10;;;;;;;;;;4919051;29;20438;-88
2022/04/01 06:57:19;;;;;;;0.10;0.10;;;;;;;;;;4903245;29;20071;-88
2022/04/01 06:59:45;;;;;;;0.20;0.20;;;;;;;;;;4898287;29;20052;-90
2022/04/01 07:02:11;;;;;;;0.10;0.10;;;;;;;;;;4899357;29;20043;-90
2022/04/01 07:04:37;;;;;;;0.10;0.10;;;;;;;;;;4894867;29;20104;-91
2022/04/01 07:07:03;;;;;;;0.10;0.10;;;;;;;;;;4884330;29;20179;-89
2022/04/01 07:09:29;;;;;;;0.10;0.10;;;;;;;;;;4877568;29;20100;-94
2022/04/01 07:11:59;;;;;;;0.10;0.10;;;;;;;;;;4884608;29;20040;-92
2022/04/01 07:14:28;;;;;;;0.10;0.10;;;;;;;;;;4884880;29;20036;-89
2022/04/01 07:16:55;;;;;;;0.10;0.10;;;;;;;;;;4884137;29;20051;-88
2022/04/01 07:19:21;;;;;;;0.10;0.10;;;;;;;;;;4884216;29;20395;-89
2022/04/01 07:21:47;;;;;;;0.10;0.10;;;;;;;;;;4899536;29;20043;-89
2022/04/01 07:24:13;;;;;;;0.10;0.10;;;;;;;;;;4899955;29;20123;-90
2022/04/01 07:26:44;;;;;;;0.10;0.10;;;;;;;;;;4878630;29;20090;-90
2022/04/01 07:29:10;;;;;;;0.10;0.10;;;;;;;;;;4883732;29;20424;-90
2022/04/01 07:34:26;;;;;;;0.10;0.10;;;;;;;;;;4901764;29;20095;-90
2022/04/01 07:36:51;;;;;;;0.10;0.10;;;;;;;;;;4884014;29;20465;-91
2022/04/01 07:39:17;;;;;;;0.10;0.10;;;;;;;;;;4883966;29;20044;-89
2022/04/01 07:41:45;;;;;;;0.10;0.10;;;;;;;;;;4878849;29;20056;-89
2022/04/01 07:44:11;;;;;;;0.40;0.40;;;;;;;;;;4899991;29;20053;-92
2022/04/01 07:46:37;;;;;;;0.20;0.20;;;;;;;;;;4891651;29;20048;-92
2022/04/01 07:49:03;;;;;;;0.10;0.10;;;;;;;;;;4918523;29;20055;-94
2022/04/01 07:51:29;;;;;;;0.10;0.10;;;;;;;;;;4918531;29;20125;-94
2022/04/01 07:53:55;;;;;;;0.10;0.10;;;;;;;;;;4918636;29;20043;-93
2022/04/01 07:56:21;;;;;;;0.10;0.10;;;;;;;;;;4922209;29;20046;-95
2022/04/01 07:58:47;;;;;;;0.10;0.10;;;;;;;;;;4937615;29;20400;-94
2022/04/01 08:01:13;;;;;;;0.10;0.10;;;;;;;;;;4937773;29;20061;-93
2022/04/01 08:03:44;;;;;;;0.10;0.10;;;;;;;;;;4906086;29;20039;-90
2022/04/01 08:06:10;;;;;;;0.10;0.10;;;;;;;;;;4906425;29;20054;-88
2022/04/01 08:08:38;;;;;;;0.10;0.10;;;;;;;;;;4905543;29;20047;-92
2022/04/01 08:11:04;;;;;;;0.15;0.15;;;;;;;;;;4905703;29;20138;-93
2022/04/01 08:13:30;;;;;;;0.10;0.10;;;;;;;;;;4922009;28;20079;-93
2022/04/01 08:15:59;;;;;;;0.10;0.10;;;;;;;;;;4909315;29;20454;-92
2022/04/01 08:18:26;;;;;;;0.17;0.17;;;;;;;;;;4909773;29;20044;-92
2022/04/01 08:20:53;;;;;;;0.15;0.15;;;;;;;;;;4909856;29;20110;-92
2022/04/01 08:23:19;;;;;;;0.10;0.10;;;;;;;;;;4910491;29;20050;-90
2022/04/01 08:25:45;;;;;;;1.63;0.30;;;;;;;;;;4925519;29;20047;-94
2022/04/01 08:28:12;;;;;;;0.10;0.10;;;;;;;;;;4911419;29;20560;-95
2022/04/01 08:30:40;;;;;;;0.10;0.10;;;;;;;;;;4927756;29;20119;-93
2022/04/01 08:33:17;;;;;;;0.13;0.13;;;;;;;;;;4913166;29;20463;-95
2022/04/01 08:35:43;;;;;;;0.20;0.20;;;;;;;;;;4910119;29;20046;-94
2022/04/01 08:38:09;;;;;;;0.10;0.10;;;;;;;;;;4909560;29;20047;-93
2022/04/01 08:40:36;;;;;;;0.10;0.10;;;;;;;;;;4909471;29;20040;-92
2022/04/01 08:43:02;;;;;;;0.10;0.10;;;;;;;;;;4909320;29;20134;-94
2022/04/01 08:45:31;;;;;;;0.10;0.10;;;;;;;;;;4894305;29;20088;-94
2022/04/01 08:47:57;;;;;;;0.45;0.45;;;;;;;;;;4909610;29;20051;-95
2022/04/01 08:50:23;;;;;;;0.10;0.10;;;;;;;;;;4909314;29;20046;-94
2022/04/01 08:52:49;;;;;;;0.10;0.10;;;;;;;;;;4909415;29;20047;-93
2022/04/01 08:55:16;;;;;;;0.43;0.43;;;;;;;;;;4925701;29;20103;-93
2022/04/01 08:57:43;;;;;;;0.10;0.10;;;;;;;;;;4925066;29;20570;-93
2022/04/01 09:00:12;;;;;;;0.10;0.10;;;;;;;;;;4909252;29;20392;-94
2022/04/01 09:02:38;;;;;;;0.10;0.10;;;;;;;;;;4924815;29;20050;-93
2022/04/01 09:05:04;;;;;;;0.10;0.10;;;;;;;;;;4909180;29;20039;-95
2022/04/01 09:07:30;;;;;;;0.25;0.25;;;;;;;;;;4924897;29;20089;-93
2022/04/01 09:10:07;;;;;;;0.50;0.50;;;;;;;;;;4909193;28;20046;-95
2022/04/01 09:12:34;;;;;;;0.20;0.20;;;;;;;;;;4908978;29;20050;-93
2022/04/01 09:15:00;;;;;;;0.10;0.10;;;;;;;;;;4909012;29;20050;-94
2022/04/01 09:17:42;;;;;;;0.10;0.10;;;;;;;;;;4909185;29;20047;-93
2022/04/01 09:20:09;;;;;;;0.20;0.20;;;;;;;;;;4925111;29;20043;-93
2022/04/01 09:22:35;;;;;;;0.10;0.10;;;;;;;;;;4909556;29;20043;-95
2022/04/01 09:25:02;;;;;;;0.10;0.10;;;;;;;;;;4908451;28;20046;-94
2022/04/01 09:27:47;;;;;;;0.20;0.20;;;;;;;;;;4909307;29;20058;-96
2022/04/01 09:30:13;;;;;;;0.10;0.10;;;;;;;;;;4940946;29;20053;-95
2022/04/01 09:32:43;;;;;;;0.20;0.20;;;;;;;;;;4925238;29;20057;-94
2022/04/01 09:35:11;;;;;;;1.55;0.32;;;;;;;;;;4909903;29;20516;-94
2022/04/01 09:37:41;;;;;;;0.10;0.10;;;;;;;;;;4911240;29;20038;-95
2022/04/01 09:40:08;;;;;;;0.10;0.10;;;;;;;;;;4911908;29;20380;-93
2022/04/01 09:42:34;;;;;;;0.15;0.15;;;;;;;;;;4924430;29;20087;-93
2022/04/01 09:45:00;;;;;;;0.30;0.30;;;;;;;;;;4924452;29;20043;-93
2022/04/01 09:47:26;;;;;;;0.10;0.10;;;;;;;;;;4913675;29;20043;-94
2022/04/01 09:49:54;;;;;;;0.20;0.20;;;;;;;;;;4913522;28;20043;-92
2022/04/01 09:52:22;;;;;;;0.28;0.28;;;;;;;;;;4923365;29;20046;-95
2022/04/01 09:54:54;;;;;;;0.10;0.10;;;;;;;;;;4918793;29;20039;-93
2022/04/01 09:57:21;;;;;;;0.20;0.20;;;;;;;;;;4909645;29;20047;-94
2022/04/01 09:59:48;;;;;;;0.10;0.10;;;;;;;;;;4924189;28;20039;-92
2022/04/01 10:02:14;;;;;;;0.30;0.30;;;;;;;;;;4923953;29;20490;-94
2022/04/01 10:04:42;;;;;;;0.10;0.10;;;;;;;;;;4908840;29;20043;-93
2022/04/01 10:07:09;;;;;;;0.30;0.30;;;;;;;;;;4908200;29;20039;-94
2022/04/01 10:09:35;;;;;;;0.10;0.10;;;;;;;;;;4939602;29;20133;-94
2022/04/01 10:12:02;;;;;;;0.13;0.13;;;;;;;;;;4908324;29;20047;-93
2022/04/01 10:14:28;;;;;;;0.20;0.20;;;;;;;;;;4908146;29;20129;-92
2022/04/01 10:16:59;;;;;;;0.10;0.10;;;;;;;;;;4907919;29;20043;-93
2022/04/01 10:19:26;;;;;;;0.13;0.13;;;;;;;;;;4908096;29;20082;-94
2022/04/01 10:21:52;;;;;;;0.22;0.22;;;;;;;;;;4907657;29;20043;-95
2022/04/01 10:24:18;;;;;;;0.10;0.10;;;;;;;;;;4923715;29;20043;-93
2022/04/01 10:26:59;;;;;;;0.10;0.10;;;;;;;;;;4939568;29;20390;-93
2022/04/01 10:29:25;;;;;;;0.10;0.10;;;;;;;;;;4923290;29;20439;-93
2022/04/01 10:31:54;;;;;;;0.35;0.35;;;;;;;;;;4923999;29;20398;-93
2022/04/01 10:34:21;;;;;;;0.10;0.10;;;;;;;;;;4907712;29;20047;-93
2022/04/01 10:36:54;;;;;;;1.35;0.63;;;;;;;;;;4907103;29;20047;-93
2022/04/01 10:39:21;;;;;;;0.10;0.10;;;;;;;;;;4907651;29;20504;-92
2022/04/01 10:42:06;;;;;;;0.10;0.10;;;;;;;;;;4922819;29;20065;-94
2022/04/01 10:44:45;;;;;;;0.20;0.20;;;;;;;;;;4922953;29;20577;-93
2022/04/01 10:47:11;;;;;;;0.10;0.10;;;;;;;;;;4923592;29;20039;-92
2022/04/01 10:52:24;;;;;;;0.20;0.20;;;;;;;;;;4925704;29;20054;-93
2022/04/01 10:55:19;;;;;;;0.10;0.10;;;;;;;;;;4907577;29;20050;-91
2022/04/01 10:57:46;;;;;;;0.30;0.30;;;;;;;;;;4911467;29;20110;-93
2022/04/01 11:00:14;;;;;;;0.10;0.10;;;;;;;;;;4907433;29;20047;-94
2022/04/01 11:02:41;;;;;;;0.10;0.10;;;;;;;;;;4907473;29;20525;-93
2022/04/01 11:05:45;;;;;;;0.10;0.10;;;;;;;;;;4907364;29;20036;-94
2022/04/01 11:08:16;;;;;;;0.10;0.10;;;;;;;;;;4865972;29;20173;-94
2022/04/01 11:11:02;;;;;;;0.35;0.30;;;;;;;;;;4850730;29;20087;-94
2022/04/01 11:13:29;;;;;;;0.10;0.10;;;;;;;;;;4923995;29;20050;-92
2022/04/01 11:16:11;;;;;;;0.10;0.10;;;;;;;;;;4938229;29;20050;-93
2022/04/01 11:18:57;;;;;;;0.10;0.10;;;;;;;;;;4923003;29;20493;-93
2022/04/01 11:21:29;;;;;;;0.10;0.10;;;;;;;;;;4922272;29;20043;-93
2022/04/01 11:24:05;;;;;;;0.10;0.10;;;;;;;;;;4907829;29;20051;-94
2022/04/01 11:26:49;;;;;;;0.10;0.10;;;;;;;;;;4907582;29;20051;-93
2022/04/01 11:29:18;;;;;;;0.10;0.10;;;;;;;;;;4926887;29;20047;-92
2022/04/01 11:31:44;;;;;;;0.20;0.20;;;;;;;;;;4909787;29;20465;-93
2022/04/01 11:34:11;;;;;;;0.10;0.10;;;;;;;;;;4909761;29;20270;-93
2022/04/01 11:36:37;;;;;;;0.10;0.10;;;;;;;;;;4907224;29;20102;-93
2022/04/01 11:39:05;;;;;;;0.25;0.25;;;;;;;;;;4906965;29;20376;-93
2022/04/01 11:41:31;;;;;;;0.10;0.10;;;;;;;;;;4906333;29;20114;-93
2022/04/01 11:43:57;;;;;;;0.10;0.10;;;;;;;;;;4922514;29;20118;-92
2022/04/01 11:46:23;;;;;;;0.10;0.10;;;;;;;;;;4906798;29;20089;-94
2022/04/01 11:48:50;;;;;;;0.10;0.10;;;;;;;;;;4908067;29;20047;-93
2022/04/01 11:51:18;;;;;;;0.10;0.10;;;;;;;;;;4910319;29;20055;-94
2022/04/01 11:53:52;;;;;;;0.10;0.10;;;;;;;;;;4910650;29;20104;-92
2022/04/01 11:56:21;;;;;;;0.10;0.10;;;;;;;;;;4910344;29;20050;-93
2022/04/01 11:58:50;;;;;;;0.15;0.15;;;;;;;;;;4910824;29;20133;-93
2022/04/01 12:01:17;;;;;;;0.20;0.20;;;;;;;;;;4925727;29;20112;-93
2022/04/01 12:03:43;;;;;;;0.10;0.10;;;;;;;;;;4910048;29;20090;-93
2022/04/01 12:09:01;;;;;;;0.10;0.10;;;;;;;;;;4944759;29;20047;-94
2022/04/01 12:11:27;;;;;;;0.15;0.15;;;;;;;;;;4910344;29;20047;-93
2022/04/01 12:13:54;;;;;;;0.10;0.10;;;;;;;;;;4925835;29;20110;-94
2022/04/01 12:16:24;;;;;;;0.10;0.10;;;;;;;;;;4909809;29;20509;-92
2022/04/01 12:18:50;;;;;;;0.10;0.10;;;;;;;;;;4910384;29;20430;-93
2022/04/01 12:21:25;;;;;;;0.10;0.10;;;;;;;;;;4925776;29;20491;-93
2022/04/01 12:23:51;;;;;;;0.77;0.40;;;;;;;;;;4909964;29;20047;-93
2022/04/01 12:26:21;;;;;;;0.10;0.10;;;;;;;;;;4910035;29;20047;-93
2022/04/01 12:28:50;;;;;;;0.10;0.10;;;;;;;;;;4925513;29;20043;-94
2022/04/01 12:31:26;;;;;;;0.10;0.10;;;;;;;;;;4909915;29;20058;-93
2022/04/01 12:33:52;;;;;;;0.30;0.30;;;;;;;;;;4910188;29;20069;-93
2022/04/01 12:36:28;;;;;;;0.10;0.10;;;;;;;;;;4909670;29;20110;-93
2022/04/01 12:39:08;;;;;;;0.10;0.10;;;;;;;;;;4909794;29;20035;-94
2022/04/01 12:41:34;;;;;;;0.30;0.30;;;;;;;;;;4925205;29;20051;-93
2022/04/01 12:44:10;;;;;;;0.10;0.10;;;;;;;;;;4925346;29;20214;-94
2022/04/01 12:46:36;;;;;;;0.10;0.10;;;;;;;;;;4909479;29;20043;-93
2022/04/01 12:49:15;;;;;;;0.10;0.10;;;;;;;;;;4909457;29;20039;-94
2022/04/01 12:51:48;;;;;;;0.10;0.10;;;;;;;;;;4909121;29;20089;-93
2022/04/01 12:54:23;;;;;;;0.10;0.10;;;;;;;;;;4909526;29;20043;-93
2022/04/01 12:56:50;;;;;;;0.10;0.10;;;;;;;;;;4909325;29;20054;-93
2022/04/01 12:59:16;;;;;;;0.10;0.10;;;;;;;;;;4909220;29;20089;-94
2022/04/01 13:01:43;;;;;;;0.10;0.10;;;;;;;;;;4924153;29;20093;-94
2022/04/01 13:04:10;;;;;;;0.10;0.10;;;;;;;;;;4909180;29;20521;-94
2022/04/01 13:06:36;;;;;;;0.10;0.10;;;;;;;;;;4909577;29;20050;-93
2022/04/01 13:09:09;;;;;;;0.10;0.10;;;;;;;;;;4909324;29;20043;-94
2022/04/01 13:11:36;;;;;;;0.10;0.10;;;;;;;;;;4909405;29;20046;-93
2022/04/01 13:14:04;;;;;;;0.10;0.10;;;;;;;;;;4925052;29;20093;-93
2022/04/01 13:16:37;;;;;;;0.10;0.10;;;;;;;;;;4909006;29;20506;-93
2022/04/01 13:19:22;;;;;;;0.10;0.10;;;;;;;;;;4909031;29;20039;-94
2022/04/01 13:21:48;;;;;;;0.10;0.10;;;;;;;;;;4924319;29;20054;-94
2022/04/01 13:24:18;;;;;;;0.10;0.10;;;;;;;;;;4908913;29;20098;-94
2022/04/01 13:26:44;;;;;;;0.10;0.10;;;;;;;;;;4908963;29;20129;-95
2022/04/01 13:29:10;;;;;;;0.10;0.10;;;;;;;;;;4908768;29;20085;-93
2022/04/01 13:31:40;;;;;;;0.13;0.13;;;;;;;;;;4909024;29;20241;-93
2022/04/01 13:34:07;;;;;;;0.10;0.10;;;;;;;;;;4924587;29;20047;-92
2022/04/01 13:36:33;;;;;;;0.98;0.20;;;;;;;;;;4909079;29;20503;-93
2022/04/01 13:39:00;;;;;;;2.22;0.43;;;;;;;;;;4909152;29;20068;-94
2022/04/01 13:41:29;;;;;;;0.10;0.10;;;;;;;;;;4908929;29;20062;-93
2022/04/01 13:43:55;;;;;;;0.20;0.20;;;;;;;;;;4909145;29;20120;-93
2022/04/01 13:46:21;;;;;;;0.20;0.20;;;;;;;;;;4908911;29;20112;-93
2022/04/01 13:48:48;;;;;;;0.10;0.10;;;;;;;;;;4908511;29;20514;-95
2022/04/01 13:51:14;;;;;;;0.85;0.63;;;;;;;;;;4908911;29;20047;-95
2022/04/01 13:53:40;;;;;;;0.10;0.10;;;;;;;;;;4908470;29;20134;-92
2022/04/01 13:56:07;;;;;;;0.28;0.28;;;;;;;;;;4924874;29;20051;-92
2022/04/01 13:58:33;;;;;;;0.10;0.10;;;;;;;;;;4908914;29;20418;-93
2022/04/01 14:00:59;;;;;;;0.22;0.22;;;;;;;;;;4908887;29;20043;-93
2022/04/01 14:03:25;;;;;;;0.17;0.17;;;;;;;;;;4908410;29;20483;-93
2022/04/01 14:05:52;;;;;;;0.10;0.10;;;;;;;;;;4908088;29;20047;-93
2022/04/01 14:08:18;;;;;;;0.10;0.10;;;;;;;;;;4908442;29;20078;-93
2022/04/01 14:10:45;;;;;;;0.10;0.10;;;;;;;;;;4908768;29;20127;-93
2022/04/01 14:13:11;;;;;;;0.10;0.10;;;;;;;;;;4924314;29;20621;-94
2022/04/01 14:15:37;;;;;;;0.10;0.10;;;;;;;;;;4910312;29;20047;-93
2022/04/01 14:18:03;;;;;;;0.10;0.10;;;;;;;;;;4921715;29;20037;-93
2022/04/01 14:20:29;;;;;;;0.10;0.10;;;;;;;;;;4926394;29;20046;-91
2022/04/01 14:22:55;;;;;;;0.20;0.20;;;;;;;;;;4922124;29;20081;-93
2022/04/01 14:25:22;;;;;;;0.10;0.10;;;;;;;;;;4908647;29;20089;-93
2022/04/01 14:27:48;;;;;;;0.10;0.10;;;;;;;;;;4913214;29;20066;-92
2022/04/01 14:30:22;;;;;;;0.10;0.10;;;;;;;;;;4925493;29;20042;-92
2022/04/01 14:32:49;;;;;;;0.10;0.10;;;;;;;;;;4941539;29;20035;-93
2022/04/01 14:35:15;;;;;;;0.10;0.10;;;;;;;;;;4907702;29;20038;-93
2022/04/01 14:37:41;;;;;;;0.10;0.10;;;;;;;;;;4923055;29;20107;-93
2022/04/01 14:40:08;;;;;;;0.10;0.10;;;;;;;;;;4907287;29;20039;-93
2022/04/01 14:42:34;;;;;;;0.10;0.10;;;;;;;;;;4907618;29;20101;-93
2022/04/01 14:45:01;;;;;;;0.10;0.10;;;;;;;;;;4907624;29;20070;-93
2022/04/01 14:47:28;;;;;;;0.10;0.10;;;;;;;;;;4907720;29;20058;-92
2022/04/01 14:49:54;;;;;;;0.10;0.10;;;;;;;;;;4907271;28;20178;-93
2022/04/01 14:52:20;;;;;;;0.10;0.10;;;;;;;;;;4923016;29;20086;-93
2022/04/01 14:54:46;;;;;;;0.10;0.10;;;;;;;;;;4922813;29;20047;-93
2022/04/01 14:57:12;;;;;;;0.10;0.10;;;;;;;;;;4907028;29;20109;-93
2022/04/01 14:59:38;;;;;;;0.47;0.47;;;;;;;;;;4907014;28;20098;-93
2022/04/01 15:02:04;;;;;;;0.10;0.10;;;;;;;;;;4922865;29;20042;-92